createdAt,value
2022-11-17T00:00:51.460Z,921.16
2022-11-17T00:01:51.668Z,921.16
2022-11-17T00:02:52.400Z,921.1
2022-11-17T00:03:53.326Z,921.09
2022-11-17T00:04:54.007Z,921.12
2022-11-17T00:05:54.359Z,921.1
2022-11-17T00:06:54.563Z,921.13
2022-11-17T00:07:55.339Z,921.14
2022-11-17T00:08:56.225Z,921.13
2022-11-17T00:09:56.419Z,921.11
2022-11-17T00:10:56.622Z,921.06
2022-11-17T00:11:57.528Z,921.11
2022-11-17T00:12:57.862Z,921.06
2022-11-17T00:13:58.801Z,921.07
2022-11-17T00:14:59.278Z,921.06
2022-11-17T00:15:59.583Z,921.04
2022-11-17T00:16:59.892Z,921
2022-11-17T00:18:00.141Z,920.98
2022-11-17T00:19:01.040Z,920.95
2022-11-17T00:20:01.964Z,920.93
2022-11-17T00:21:02.857Z,920.92
2022-11-17T00:22:03.506Z,920.93
2022-11-17T00:23:04.403Z,921
2022-11-17T00:24:05.018Z,920.98
2022-11-17T00:25:05.993Z,920.98
2022-11-17T00:26:06.896Z,921.01
2022-11-17T00:27:07.510Z,920.99
2022-11-17T00:28:07.699Z,920.94
2022-11-17T00:29:08.270Z,920.91
2022-11-17T00:30:09.172Z,920.94
2022-11-17T00:31:09.905Z,920.93
2022-11-17T00:32:10.090Z,920.91
2022-11-17T00:33:10.519Z,920.91
2022-11-17T00:34:11.114Z,920.87
2022-11-17T00:35:11.704Z,920.83
2022-11-17T00:36:11.906Z,920.86
2022-11-17T00:37:12.821Z,920.86
2022-11-17T00:38:13.014Z,920.91
2022-11-17T00:39:13.222Z,920.86
2022-11-17T00:40:13.422Z,920.9
2022-11-17T00:41:14.315Z,920.87
2022-11-17T00:42:14.526Z,920.86
2022-11-17T00:43:15.439Z,920.87
2022-11-17T00:44:16.214Z,920.9
2022-11-17T00:45:16.914Z,920.87
2022-11-17T00:46:17.552Z,920.86
2022-11-17T00:47:18.460Z,920.92
2022-11-17T00:48:18.799Z,920.87
2022-11-17T00:49:19.422Z,920.93
2022-11-17T00:50:19.610Z,920.94
2022-11-17T00:51:20.226Z,920.95
2022-11-17T00:52:20.841Z,920.95
2022-11-17T00:53:21.432Z,920.94
2022-11-17T00:54:22.520Z,920.95
2022-11-17T00:55:22.907Z,920.97
2022-11-17T00:56:23.884Z,920.92
2022-11-17T00:57:24.509Z,920.95
2022-11-17T00:58:25.128Z,920.93
2022-11-17T00:59:25.859Z,920.91
2022-11-17T01:00:26.226Z,920.91
2022-11-17T01:01:26.468Z,920.93
2022-11-17T01:02:27.233Z,920.98
2022-11-17T01:03:27.848Z,920.94
2022-11-17T01:04:27.998Z,920.96
2022-11-17T01:05:32.787Z,920.98
2022-11-17T01:06:29.430Z,920.95
2022-11-17T01:07:29.658Z,920.97
2022-11-17T01:08:30.425Z,921.01
2022-11-17T01:09:31.069Z,921.01
2022-11-17T01:10:31.562Z,921.07
2022-11-17T01:11:32.155Z,921.07
2022-11-17T01:12:32.355Z,921.05
2022-11-17T01:13:32.952Z,920.98
2022-11-17T01:14:32.872Z,920.98
2022-11-17T01:15:33.781Z,920.99
2022-11-17T01:16:34.077Z,921.05
2022-11-17T01:17:34.702Z,921.08
2022-11-17T01:18:35.143Z,921.05
2022-11-17T01:19:36.031Z,921.1
2022-11-17T01:20:36.945Z,921.13
2022-11-17T01:21:37.579Z,921.1
2022-11-17T01:22:37.799Z,921.06
2022-11-17T01:23:38.011Z,920.93
2022-11-17T01:24:38.939Z,920.85
2022-11-17T01:25:39.204Z,920.83
2022-11-17T01:26:40.096Z,920.82
2022-11-17T01:27:40.583Z,920.84
2022-11-17T01:28:41.493Z,920.84
2022-11-17T01:29:42.145Z,920.85
2022-11-17T01:30:42.634Z,920.82
2022-11-17T01:31:43.243Z,920.87
2022-11-17T01:32:44.177Z,920.86
2022-11-17T01:33:45.133Z,920.88
2022-11-17T01:34:46.024Z,920.93
2022-11-17T01:35:46.446Z,920.93
2022-11-17T01:36:46.653Z,920.83
2022-11-17T01:37:47.545Z,920.85
2022-11-17T01:38:48.456Z,920.82
2022-11-17T01:39:48.948Z,920.76
2022-11-17T01:40:49.581Z,920.72
2022-11-17T01:41:50.197Z,920.72
2022-11-17T01:42:50.409Z,920.7
2022-11-17T01:43:51.023Z,920.71
2022-11-17T01:44:51.259Z,920.7
2022-11-17T01:45:52.239Z,920.69
2022-11-17T01:46:56.956Z,920.69
2022-11-17T01:47:53.814Z,920.7
2022-11-17T01:48:54.263Z,920.7
2022-11-17T01:49:55.184Z,920.7
2022-11-17T01:50:55.521Z,920.62
2022-11-17T01:51:56.264Z,920.62
2022-11-17T01:52:56.879Z,920.59
2022-11-17T01:53:57.511Z,920.66
2022-11-17T01:54:58.428Z,920.69
2022-11-17T01:55:59.153Z,920.75
2022-11-17T01:56:59.359Z,920.73
2022-11-17T01:57:59.693Z,920.82
2022-11-17T01:58:59.883Z,920.81
2022-11-17T02:00:00.397Z,920.81
2022-11-17T02:01:01.313Z,920.81
2022-11-17T02:02:01.682Z,920.86
2022-11-17T02:03:02.724Z,920.86
2022-11-17T02:04:03.438Z,920.86
2022-11-17T02:05:04.345Z,920.87
2022-11-17T02:06:05.064Z,920.88
2022-11-17T02:07:05.456Z,920.85
2022-11-17T02:08:06.409Z,920.88
2022-11-17T02:09:06.892Z,920.91
2022-11-17T02:10:07.105Z,920.93
2022-11-17T02:11:07.323Z,920.93
2022-11-17T02:12:08.252Z,920.91
2022-11-17T02:13:09.141Z,920.89
2022-11-17T02:14:10.059Z,920.9
2022-11-17T02:15:10.980Z,920.89
2022-11-17T02:16:11.684Z,920.89
2022-11-17T02:17:14.366Z,920.88
2022-11-17T02:18:13.507Z,920.85
2022-11-17T02:19:13.924Z,920.86
2022-11-17T02:20:14.816Z,920.83
2022-11-17T02:21:15.028Z,920.83
2022-11-17T02:22:15.934Z,920.81
2022-11-17T02:23:16.139Z,920.83
2022-11-17T02:24:17.160Z,920.84
2022-11-17T02:25:18.439Z,920.86
2022-11-17T02:26:18.475Z,920.85
2022-11-17T02:27:18.661Z,920.79
2022-11-17T02:28:19.576Z,920.83
2022-11-17T02:29:20.470Z,920.74
2022-11-17T02:30:20.779Z,920.69
2022-11-17T02:31:21.378Z,920.73
2022-11-17T02:32:21.612Z,920.77
2022-11-17T02:33:22.252Z,920.78
2022-11-17T02:34:22.443Z,920.82
2022-11-17T02:35:23.078Z,920.82
2022-11-17T02:36:23.260Z,920.79
2022-11-17T02:37:23.746Z,920.75
2022-11-17T02:38:24.678Z,920.7
2022-11-17T02:39:25.568Z,920.67
2022-11-17T02:40:26.181Z,920.61
2022-11-17T02:41:27.093Z,920.57
2022-11-17T02:42:27.279Z,920.54
2022-11-17T02:43:27.897Z,920.49
2022-11-17T02:44:28.195Z,920.41
2022-11-17T02:45:28.798Z,920.35
2022-11-17T02:46:28.802Z,920.33
2022-11-17T02:47:29.726Z,920.3
2022-11-17T02:48:30.640Z,920.27
2022-11-17T02:49:31.455Z,920.3
2022-11-17T02:50:32.070Z,920.32
2022-11-17T02:51:32.686Z,920.32
2022-11-17T02:52:33.589Z,920.29
2022-11-17T02:53:34.509Z,920.2
2022-11-17T02:54:34.335Z,920.18
2022-11-17T02:55:34.954Z,920.16
2022-11-17T02:56:35.357Z,920.13
2022-11-17T02:57:35.570Z,920.12
2022-11-17T02:58:36.481Z,920.15
2022-11-17T02:59:37.092Z,920.09
2022-11-17T03:00:38.118Z,920.06
2022-11-17T03:01:38.651Z,920.05
2022-11-17T03:02:39.176Z,920.03
2022-11-17T03:03:40.087Z,920.03
2022-11-17T03:04:40.596Z,920.01
2022-11-17T03:05:41.215Z,920.01
2022-11-17T03:06:41.606Z,920.04
2022-11-17T03:07:41.736Z,920.02
2022-11-17T03:08:41.943Z,920.01
2022-11-17T03:09:42.134Z,919.97
2022-11-17T03:10:42.332Z,920.01
2022-11-17T03:11:42.952Z,920.04
2022-11-17T03:12:43.876Z,920.01
2022-11-17T03:13:44.789Z,920.04
2022-11-17T03:14:45.074Z,920.02
2022-11-17T03:15:46.016Z,919.98
2022-11-17T03:16:46.312Z,919.97
2022-11-17T03:17:46.515Z,919.93
2022-11-17T03:18:46.707Z,919.95
2022-11-17T03:19:47.519Z,919.94
2022-11-17T03:20:47.703Z,919.95
2022-11-17T03:21:47.926Z,919.99
2022-11-17T03:22:48.848Z,919.96
2022-11-17T03:23:49.760Z,919.95
2022-11-17T03:24:50.783Z,919.94
2022-11-17T03:25:51.433Z,919.9
2022-11-17T03:26:52.395Z,919.87
2022-11-17T03:27:53.007Z,919.83
2022-11-17T03:28:53.207Z,919.75
2022-11-17T03:29:53.396Z,919.66
2022-11-17T03:30:54.514Z,919.68
2022-11-17T03:31:55.416Z,919.77
2022-11-17T03:32:55.626Z,919.84
2022-11-17T03:33:56.234Z,919.88
2022-11-17T03:34:56.485Z,919.91
2022-11-17T03:35:57.127Z,919.97
2022-11-17T03:36:57.260Z,919.99
2022-11-17T03:37:58.178Z,919.93
2022-11-17T03:38:59.105Z,919.87
2022-11-17T03:40:00.015Z,919.82
2022-11-17T03:41:00.643Z,919.82
2022-11-17T03:42:01.258Z,919.85
2022-11-17T03:43:01.901Z,919.9
2022-11-17T03:44:02.808Z,919.79
2022-11-17T03:45:03.141Z,919.73
2022-11-17T03:46:03.468Z,919.71
2022-11-17T03:47:04.437Z,919.7
2022-11-17T03:48:04.642Z,919.66
2022-11-17T03:49:04.846Z,919.59
2022-11-17T03:50:05.298Z,919.53
2022-11-17T03:51:05.491Z,919.57
2022-11-17T03:52:06.098Z,919.48
2022-11-17T03:53:06.715Z,919.44
2022-11-17T03:54:07.030Z,919.41
2022-11-17T03:55:07.942Z,919.41
2022-11-17T03:56:08.854Z,919.39
2022-11-17T03:57:08.963Z,919.38
2022-11-17T03:58:09.856Z,919.36
2022-11-17T03:59:10.767Z,919.37
2022-11-17T04:00:11.673Z,919.36
2022-11-17T04:01:12.412Z,919.36
2022-11-17T04:02:12.873Z,919.32
2022-11-17T04:03:13.881Z,919.23
2022-11-17T04:04:14.490Z,919.23
2022-11-17T04:05:15.127Z,919.25
2022-11-17T04:06:15.472Z,919.27
2022-11-17T04:07:16.111Z,919.23
2022-11-17T04:08:16.413Z,919.22
2022-11-17T04:09:19.967Z,919.16
2022-11-17T04:10:17.269Z,919.18
2022-11-17T04:11:17.455Z,919.18
2022-11-17T04:12:18.347Z,919.18
2022-11-17T04:13:18.532Z,919.18
2022-11-17T04:14:18.993Z,919.23
2022-11-17T04:15:19.174Z,919.25
2022-11-17T04:16:19.778Z,919.21
2022-11-17T04:17:20.691Z,919.17
2022-11-17T04:18:21.394Z,919.18
2022-11-17T04:19:22.095Z,919.18
2022-11-17T04:20:22.429Z,919.16
2022-11-17T04:21:23.052Z,919.15
2022-11-17T04:22:23.979Z,919.21
2022-11-17T04:23:24.168Z,919.21
2022-11-17T04:24:24.321Z,919.23
2022-11-17T04:25:24.993Z,919.18
2022-11-17T04:26:25.208Z,919.17
2022-11-17T04:27:25.910Z,919.13
2022-11-17T04:28:26.863Z,919.15
2022-11-17T04:29:27.823Z,919.16
2022-11-17T04:30:28.039Z,919.14
2022-11-17T04:31:29.409Z,919.17
2022-11-17T04:32:29.606Z,919.17
2022-11-17T04:33:29.910Z,919.14
2022-11-17T04:34:30.027Z,919.11
2022-11-17T04:35:30.465Z,919.1
2022-11-17T04:36:30.677Z,919.14
2022-11-17T04:37:31.123Z,919.14
2022-11-17T04:38:32.109Z,919.18
2022-11-17T04:39:32.744Z,919.13
2022-11-17T04:40:32.952Z,919.12
2022-11-17T04:41:33.263Z,919.06
2022-11-17T04:42:33.583Z,919.1
2022-11-17T04:43:34.569Z,919.12
2022-11-17T04:44:34.647Z,919.15
2022-11-17T04:45:34.856Z,919.12
2022-11-17T04:46:35.625Z,919.15
2022-11-17T04:47:36.181Z,919.17
2022-11-17T04:48:36.497Z,919.18
2022-11-17T04:49:36.690Z,919.16
2022-11-17T04:50:37.005Z,919.15
2022-11-17T04:51:37.208Z,919.18
2022-11-17T04:52:37.411Z,919.13
2022-11-17T04:53:38.187Z,919.14
2022-11-17T04:54:38.468Z,919.15
2022-11-17T04:55:38.660Z,919.21
2022-11-17T04:56:39.279Z,919.3
2022-11-17T04:57:39.572Z,919.3
2022-11-17T04:58:40.481Z,919.38
2022-11-17T04:59:41.120Z,919.49
2022-11-17T05:00:41.348Z,919.56
2022-11-17T05:01:41.595Z,919.61
2022-11-17T05:02:41.943Z,919.63
2022-11-17T05:03:42.978Z,919.64
2022-11-17T05:04:43.189Z,919.77
2022-11-17T05:05:43.920Z,919.82
2022-11-17T05:06:44.134Z,919.87
2022-11-17T05:07:44.369Z,919.93
2022-11-17T05:08:45.299Z,919.98
2022-11-17T05:09:45.792Z,919.98
2022-11-17T05:10:46.723Z,919.94
2022-11-17T05:11:47.050Z,920.05
2022-11-17T05:12:47.955Z,920.06
2022-11-17T05:13:48.595Z,920.02
2022-11-17T05:14:49.261Z,920
2022-11-17T05:15:49.753Z,919.96
2022-11-17T05:16:50.784Z,919.89
2022-11-17T05:17:50.764Z,919.8
2022-11-17T05:18:50.976Z,919.7
2022-11-17T05:19:51.168Z,919.73
2022-11-17T05:20:51.983Z,919.86
2022-11-17T05:21:52.609Z,919.9
2022-11-17T05:22:53.511Z,919.89
2022-11-17T05:23:54.072Z,919.79
2022-11-17T05:24:54.999Z,919.8
2022-11-17T05:25:55.910Z,919.86
2022-11-17T05:26:56.824Z,919.91
2022-11-17T05:27:57.530Z,919.99
2022-11-17T05:28:58.459Z,920.09
2022-11-17T05:29:59.371Z,920.17
2022-11-17T05:30:59.720Z,920.26
2022-11-17T05:32:00.030Z,920.28
2022-11-17T05:33:00.210Z,920.12
2022-11-17T05:34:00.814Z,920.12
2022-11-17T05:35:01.037Z,920.18
2022-11-17T05:36:01.620Z,920.18
2022-11-17T05:37:02.533Z,920.21
2022-11-17T05:38:03.381Z,920.21
2022-11-17T05:39:04.037Z,920.24
2022-11-17T05:40:04.525Z,920.23
2022-11-17T05:41:05.432Z,920.28
2022-11-17T05:42:06.047Z,920.31
2022-11-17T05:43:06.238Z,920.3
2022-11-17T05:44:07.138Z,920.25
2022-11-17T05:45:07.327Z,920.18
2022-11-17T05:46:07.509Z,920.13
2022-11-17T05:47:08.116Z,920.04
2022-11-17T05:48:08.397Z,920.09
2022-11-17T05:49:08.617Z,920.13
2022-11-17T05:50:09.112Z,920.21
2022-11-17T05:51:09.829Z,920.15
2022-11-17T05:52:10.420Z,920.2
2022-11-17T05:53:11.331Z,920.25
2022-11-17T05:54:11.539Z,920.32
2022-11-17T05:55:12.025Z,920.34
2022-11-17T05:56:12.935Z,920.39
2022-11-17T05:57:13.547Z,920.3
2022-11-17T05:58:13.961Z,920.35
2022-11-17T05:59:14.168Z,920.3
2022-11-17T06:00:14.404Z,920.27
2022-11-17T06:01:15.323Z,920.33
2022-11-17T06:02:15.657Z,920.28
2022-11-17T06:03:16.259Z,920.19
2022-11-17T06:04:17.267Z,920.1
2022-11-17T06:05:20.341Z,920.11
2022-11-17T06:06:18.280Z,920.06
2022-11-17T06:07:19.317Z,920.04
2022-11-17T06:08:19.387Z,920.03
2022-11-17T06:09:20.276Z,920.02
2022-11-17T06:10:20.755Z,919.96
2022-11-17T06:11:20.964Z,919.99
2022-11-17T06:12:21.466Z,919.96
2022-11-17T06:13:22.380Z,919.91
2022-11-17T06:14:22.798Z,919.89
2022-11-17T06:15:23.715Z,919.91
2022-11-17T06:16:23.905Z,919.95
2022-11-17T06:17:24.117Z,919.94
2022-11-17T06:18:24.704Z,920.01
2022-11-17T06:19:25.434Z,920.04
2022-11-17T06:20:26.047Z,920.07
2022-11-17T06:21:26.596Z,920.05
2022-11-17T06:22:27.342Z,920.02
2022-11-17T06:23:28.000Z,919.93
2022-11-17T06:24:28.987Z,919.86
2022-11-17T06:25:29.514Z,919.8
2022-11-17T06:26:30.252Z,919.77
2022-11-17T06:27:30.443Z,919.76
2022-11-17T06:28:30.861Z,919.71
2022-11-17T06:29:31.055Z,919.69
2022-11-17T06:30:32.147Z,919.64
2022-11-17T06:31:32.348Z,919.65
2022-11-17T06:32:33.097Z,919.66
2022-11-17T06:33:34.323Z,919.67
2022-11-17T06:34:34.198Z,919.67
2022-11-17T06:35:35.001Z,919.65
2022-11-17T06:36:35.621Z,919.67
2022-11-17T06:37:36.266Z,919.61
2022-11-17T06:38:36.664Z,919.56
2022-11-17T06:39:37.581Z,919.52
2022-11-17T06:40:37.779Z,919.52
2022-11-17T06:41:38.710Z,919.51
2022-11-17T06:42:39.669Z,919.53
2022-11-17T06:43:40.011Z,919.51
2022-11-17T06:44:40.920Z,919.5
2022-11-17T06:45:41.521Z,919.48
2022-11-17T06:46:46.188Z,919.42
2022-11-17T06:47:42.700Z,919.47
2022-11-17T06:48:43.419Z,919.47
2022-11-17T06:49:44.032Z,919.49
2022-11-17T06:50:44.385Z,919.55
2022-11-17T06:51:45.488Z,919.59
2022-11-17T06:52:45.860Z,919.66
2022-11-17T06:53:46.063Z,919.74
2022-11-17T06:54:46.550Z,919.82
2022-11-17T06:55:47.459Z,919.76
2022-11-17T06:56:48.370Z,919.81
2022-11-17T06:57:53.342Z,919.87
2022-11-17T06:58:50.348Z,919.95
2022-11-17T06:59:50.837Z,920.08
2022-11-17T07:00:51.247Z,920.09
2022-11-17T07:01:52.102Z,920.17
2022-11-17T07:02:52.314Z,920.11
2022-11-17T07:03:52.494Z,920.17
2022-11-17T07:04:53.104Z,920.17
2022-11-17T07:05:53.299Z,920.18
2022-11-17T07:06:53.729Z,920.23
2022-11-17T07:07:54.359Z,920.19
2022-11-17T07:08:54.822Z,920.25
2022-11-17T07:09:55.464Z,920.24
2022-11-17T07:10:56.083Z,920.18
2022-11-17T07:11:57.022Z,920.09
2022-11-17T07:12:57.926Z,920.13
2022-11-17T07:13:58.823Z,920.11
2022-11-17T07:14:59.747Z,920.18
2022-11-17T07:15:59.937Z,920.18
2022-11-17T07:17:00.666Z,920.21
2022-11-17T07:18:01.001Z,920.27
2022-11-17T07:19:01.410Z,920.37
2022-11-17T07:20:02.016Z,920.44
2022-11-17T07:21:02.665Z,920.33
2022-11-17T07:22:03.292Z,920.31
2022-11-17T07:23:04.266Z,920.38
2022-11-17T07:24:05.186Z,920.38
2022-11-17T07:25:06.106Z,920.33
2022-11-17T07:26:06.306Z,920.4
2022-11-17T07:27:06.930Z,920.4
2022-11-17T07:28:07.121Z,920.39
2022-11-17T07:29:07.837Z,920.46
2022-11-17T07:30:08.734Z,920.48
2022-11-17T07:31:09.666Z,920.45
2022-11-17T07:32:10.297Z,920.43
2022-11-17T07:33:10.606Z,920.38
2022-11-17T07:34:10.799Z,920.35
2022-11-17T07:35:11.104Z,920.45
2022-11-17T07:36:11.771Z,920.37
2022-11-17T07:37:12.216Z,920.31
2022-11-17T07:38:13.152Z,920.35
2022-11-17T07:39:17.143Z,920.37
2022-11-17T07:40:14.223Z,920.43
2022-11-17T07:41:14.422Z,920.42
2022-11-17T07:42:14.637Z,920.4
2022-11-17T07:43:15.545Z,920.42
2022-11-17T07:44:15.887Z,920.41
2022-11-17T07:45:16.085Z,920.39
2022-11-17T07:46:16.894Z,920.46
2022-11-17T07:47:17.827Z,920.43
2022-11-17T07:48:18.163Z,920.38
2022-11-17T07:49:18.396Z,920.34
2022-11-17T07:50:18.637Z,920.29
2022-11-17T07:51:19.247Z,920.3
2022-11-17T07:52:19.788Z,920.36
2022-11-17T07:53:20.045Z,920.35
2022-11-17T07:54:20.987Z,920.38
2022-11-17T07:55:21.182Z,920.42
2022-11-17T07:56:22.122Z,920.32
2022-11-17T07:57:22.627Z,920.25
2022-11-17T07:58:23.245Z,920.22
2022-11-17T07:59:23.393Z,920.3
2022-11-17T08:00:23.708Z,920.27
2022-11-17T08:01:24.398Z,920.32
2022-11-17T08:02:24.653Z,920.38
2022-11-17T08:03:25.640Z,920.43
2022-11-17T08:04:26.000Z,920.44
2022-11-17T08:05:26.931Z,920.36
2022-11-17T08:06:27.790Z,920.35
2022-11-17T08:07:28.288Z,920.31
2022-11-17T08:08:28.691Z,920.31
2022-11-17T08:09:29.377Z,920.32
2022-11-17T08:10:30.339Z,920.38
2022-11-17T08:11:30.836Z,920.41
2022-11-17T08:12:31.029Z,920.37
2022-11-17T08:13:31.950Z,920.3
2022-11-17T08:14:32.903Z,920.32
2022-11-17T08:15:33.850Z,920.37
2022-11-17T08:16:33.981Z,920.3
2022-11-17T08:17:35.060Z,920.39
2022-11-17T08:18:35.564Z,920.34
2022-11-17T08:19:36.100Z,920.35
2022-11-17T08:20:37.129Z,920.36
2022-11-17T08:21:37.835Z,920.43
2022-11-17T08:22:38.566Z,920.39
2022-11-17T08:23:39.525Z,920.38
2022-11-17T08:24:39.671Z,920.39
2022-11-17T08:25:39.770Z,920.44
2022-11-17T08:26:40.685Z,920.43
2022-11-17T08:27:40.919Z,920.45
2022-11-17T08:28:41.157Z,920.4
2022-11-17T08:29:42.036Z,920.4
2022-11-17T08:30:42.252Z,920.4
2022-11-17T08:31:43.218Z,920.39
2022-11-17T08:32:43.429Z,920.37
2022-11-17T08:33:43.873Z,920.36
2022-11-17T08:34:44.247Z,920.29
2022-11-17T08:35:44.548Z,920.3
2022-11-17T08:36:44.789Z,920.4
2022-11-17T08:37:45.235Z,920.39
2022-11-17T08:38:46.005Z,920.46
2022-11-17T08:39:46.125Z,920.44
2022-11-17T08:40:46.676Z,920.45
2022-11-17T08:41:47.180Z,920.39
2022-11-17T08:42:47.419Z,920.41
2022-11-17T08:43:47.889Z,920.33
2022-11-17T08:44:48.622Z,920.33
2022-11-17T08:45:49.264Z,920.3
2022-11-17T08:46:49.900Z,920.32
2022-11-17T08:47:50.963Z,920.29
2022-11-17T08:48:56.790Z,920.37
2022-11-17T08:49:51.702Z,920.3
2022-11-17T08:50:52.746Z,920.23
2022-11-17T08:51:53.649Z,920.22
2022-11-17T08:52:53.866Z,920.28
2022-11-17T08:53:54.375Z,920.32
2022-11-17T08:54:55.376Z,920.32
2022-11-17T08:55:55.892Z,920.31
2022-11-17T08:56:56.565Z,920.31
2022-11-17T08:57:57.487Z,920.31
2022-11-17T08:58:58.121Z,920.31
2022-11-17T08:59:58.632Z,920.28
2022-11-17T09:01:03.930Z,920.31
2022-11-17T09:02:00.165Z,920.31
2022-11-17T09:03:00.661Z,920.29
2022-11-17T09:04:01.703Z,920.33
2022-11-17T09:05:01.923Z,920.4
2022-11-17T09:06:02.866Z,920.38
2022-11-17T09:07:03.538Z,920.35
2022-11-17T09:08:22.719Z,920.31
2022-11-17T09:09:04.451Z,920.37
2022-11-17T09:10:04.043Z,920.35
2022-11-17T09:11:04.432Z,920.33
2022-11-17T09:12:04.931Z,920.38
2022-11-17T09:13:05.852Z,920.36
2022-11-17T09:14:06.155Z,920.44
2022-11-17T09:15:07.101Z,920.46
2022-11-17T09:16:08.048Z,920.39
2022-11-17T09:17:08.755Z,920.39
2022-11-17T09:18:08.985Z,920.37
2022-11-17T09:19:09.606Z,920.35
2022-11-17T09:20:10.101Z,920.34
2022-11-17T09:21:11.208Z,920.4
2022-11-17T09:22:11.735Z,920.42
2022-11-17T09:23:12.243Z,920.44
2022-11-17T09:24:13.017Z,920.45
2022-11-17T09:25:13.722Z,920.43
2022-11-17T09:26:14.073Z,920.45
2022-11-17T09:27:14.426Z,920.48
2022-11-17T09:28:14.962Z,920.43
2022-11-17T09:29:15.548Z,920.45
2022-11-17T09:30:16.202Z,920.44
2022-11-17T09:31:16.724Z,920.46
2022-11-17T09:32:17.487Z,920.5
2022-11-17T09:33:18.478Z,920.47
2022-11-17T09:34:19.032Z,920.5
2022-11-17T09:35:19.250Z,920.47
2022-11-17T09:36:20.337Z,920.49
2022-11-17T09:37:20.885Z,920.49
2022-11-17T09:38:21.357Z,920.48
2022-11-17T09:39:21.785Z,920.5
2022-11-17T09:40:22.202Z,920.56
2022-11-17T09:41:22.458Z,920.57
2022-11-17T09:42:23.465Z,920.59
2022-11-17T09:43:23.684Z,920.67
2022-11-17T09:44:24.623Z,920.71
2022-11-17T09:45:24.844Z,920.76
2022-11-17T09:46:25.491Z,920.77
2022-11-17T09:47:26.014Z,920.74
2022-11-17T09:48:40.557Z,920.7
2022-11-17T09:49:27.861Z,920.68
2022-11-17T09:50:28.422Z,920.73
2022-11-17T09:51:28.745Z,920.69
2022-11-17T09:52:29.668Z,920.69
2022-11-17T09:53:30.569Z,920.68
2022-11-17T09:54:30.848Z,920.7
2022-11-17T09:55:34.304Z,920.72
2022-11-17T09:56:32.807Z,920.76
2022-11-17T09:57:33.137Z,920.76
2022-11-17T09:58:33.859Z,920.74
2022-11-17T09:59:34.010Z,920.76
2022-11-17T10:00:34.207Z,920.78
2022-11-17T10:01:34.589Z,920.76
2022-11-17T10:02:35.450Z,920.82
2022-11-17T10:03:40.221Z,920.81
2022-11-17T10:04:36.742Z,920.86
2022-11-17T10:05:37.679Z,920.87
2022-11-17T10:06:38.302Z,920.86
2022-11-17T10:07:38.756Z,920.82
2022-11-17T10:08:38.854Z,920.84
2022-11-17T10:09:39.518Z,920.8
2022-11-17T10:10:40.643Z,920.76
2022-11-17T10:11:41.608Z,920.79
2022-11-17T10:12:41.859Z,920.76
2022-11-17T10:13:42.918Z,920.82
2022-11-17T10:14:43.656Z,920.84
2022-11-17T10:15:44.170Z,920.83
2022-11-17T10:16:45.120Z,920.85
2022-11-17T10:17:46.108Z,920.79
2022-11-17T10:18:46.557Z,920.77
2022-11-17T10:19:46.961Z,920.83
2022-11-17T10:20:47.934Z,920.84
2022-11-17T10:21:48.898Z,920.86
2022-11-17T10:22:49.601Z,920.85
2022-11-17T10:23:50.175Z,920.93
2022-11-17T10:24:50.768Z,920.91
2022-11-17T10:25:51.401Z,920.88
2022-11-17T10:26:52.308Z,920.81
2022-11-17T10:27:52.967Z,920.84
2022-11-17T10:28:53.891Z,920.85
2022-11-17T10:29:54.095Z,920.86
2022-11-17T10:30:55.040Z,920.85
2022-11-17T10:31:55.378Z,920.87
2022-11-17T10:32:55.942Z,920.85
2022-11-17T10:33:56.197Z,920.84
2022-11-17T10:34:56.420Z,920.89
2022-11-17T10:35:56.996Z,920.94
2022-11-17T10:36:57.756Z,920.94
2022-11-17T10:37:58.853Z,920.94
2022-11-17T10:38:59.797Z,920.96
2022-11-17T10:40:00.648Z,920.93
2022-11-17T10:41:01.350Z,920.92
2022-11-17T10:42:01.559Z,920.94
2022-11-17T10:43:02.068Z,920.96
2022-11-17T10:44:02.271Z,920.92
2022-11-17T10:45:02.618Z,920.89
2022-11-17T10:46:03.114Z,920.87
2022-11-17T10:47:03.355Z,920.94
2022-11-17T10:48:03.482Z,920.93
2022-11-17T10:49:03.870Z,920.94
2022-11-17T10:50:04.841Z,920.98
2022-11-17T10:51:05.250Z,920.97
2022-11-17T10:52:05.630Z,920.95
2022-11-17T10:53:10.009Z,920.93
2022-11-17T10:54:07.249Z,920.93
2022-11-17T10:55:08.167Z,920.95
2022-11-17T10:56:08.835Z,920.98
2022-11-17T10:57:09.095Z,920.96
2022-11-17T10:58:09.315Z,920.94
2022-11-17T10:59:09.808Z,920.95
2022-11-17T11:00:10.442Z,920.91
2022-11-17T11:01:11.114Z,920.88
2022-11-17T11:02:11.308Z,920.88
2022-11-17T11:03:11.531Z,920.91
2022-11-17T11:04:11.750Z,921
2022-11-17T11:05:12.302Z,921.02
2022-11-17T11:06:17.321Z,921.03
2022-11-17T11:07:13.634Z,921.01
2022-11-17T11:08:14.093Z,920.95
2022-11-17T11:09:15.117Z,920.93
2022-11-17T11:10:15.863Z,920.92
2022-11-17T11:11:16.870Z,920.95
2022-11-17T11:12:17.644Z,920.99
2022-11-17T11:13:18.154Z,921
2022-11-17T11:14:18.368Z,920.98
2022-11-17T11:15:18.567Z,921.02
2022-11-17T11:16:19.477Z,921.01
2022-11-17T11:17:20.405Z,920.99
2022-11-17T11:18:20.899Z,920.94
2022-11-17T11:19:21.695Z,920.95
2022-11-17T11:20:22.605Z,920.94
2022-11-17T11:21:23.231Z,920.94
2022-11-17T11:22:23.789Z,920.98
2022-11-17T11:23:24.275Z,920.98
2022-11-17T11:24:24.473Z,921
2022-11-17T11:25:25.087Z,921.01
2022-11-17T11:26:25.285Z,921.04
2022-11-17T11:27:25.918Z,920.94
2022-11-17T11:28:26.840Z,920.98
2022-11-17T11:29:27.305Z,920.98
2022-11-17T11:30:27.565Z,920.99
2022-11-17T11:31:28.602Z,920.92
2022-11-17T11:32:29.154Z,920.93
2022-11-17T11:33:29.560Z,920.9
2022-11-17T11:34:30.503Z,920.9
2022-11-17T11:35:30.745Z,920.93
2022-11-17T11:36:30.947Z,920.97
2022-11-17T11:37:31.486Z,920.93
2022-11-17T11:38:32.482Z,920.98
2022-11-17T11:39:32.859Z,920.94
2022-11-17T11:40:33.446Z,920.93
2022-11-17T11:41:33.772Z,920.94
2022-11-17T11:42:33.997Z,920.98
2022-11-17T11:43:34.200Z,920.88
2022-11-17T11:44:34.696Z,920.84
2022-11-17T11:45:35.333Z,920.82
2022-11-17T11:46:36.271Z,920.88
2022-11-17T11:47:37.189Z,920.89
2022-11-17T11:48:37.832Z,920.96
2022-11-17T11:49:38.343Z,920.96
2022-11-17T11:50:41.810Z,920.96
2022-11-17T11:51:40.237Z,920.93
2022-11-17T11:52:40.768Z,920.96
2022-11-17T11:53:41.711Z,920.96
2022-11-17T11:54:46.269Z,920.96
2022-11-17T11:55:43.008Z,920.98
2022-11-17T11:56:43.414Z,920.99
2022-11-17T11:57:44.486Z,920.96
2022-11-17T11:58:44.699Z,920.98
2022-11-17T11:59:44.974Z,920.95
2022-11-17T12:00:45.635Z,920.94
2022-11-17T12:01:45.800Z,920.92
2022-11-17T12:02:46.167Z,920.94
2022-11-17T12:03:46.806Z,920.93
2022-11-17T12:04:47.008Z,920.95
2022-11-17T12:05:47.740Z,920.88
2022-11-17T12:06:48.381Z,920.88
2022-11-17T12:07:48.539Z,920.94
2022-11-17T12:08:49.013Z,921
2022-11-17T12:09:49.935Z,921.02
2022-11-17T12:10:50.909Z,920.96
2022-11-17T12:11:51.740Z,920.97
2022-11-17T12:12:52.369Z,920.97
2022-11-17T12:13:54.407Z,920.96
2022-11-17T12:14:54.086Z,920.9
2022-11-17T12:15:55.018Z,920.84
2022-11-17T12:16:55.270Z,920.83
2022-11-17T12:17:55.619Z,920.83
2022-11-17T12:18:55.812Z,920.82
2022-11-17T12:19:56.017Z,920.78
2022-11-17T12:20:56.244Z,920.79
2022-11-17T12:21:56.859Z,920.77
2022-11-17T12:22:57.195Z,920.72
2022-11-17T12:23:58.124Z,920.76
2022-11-17T12:24:58.498Z,920.77
2022-11-17T12:25:59.436Z,920.73
2022-11-17T12:27:00.205Z,920.77
2022-11-17T12:28:00.618Z,920.76
2022-11-17T12:29:00.897Z,920.77
2022-11-17T12:30:01.122Z,920.84
2022-11-17T12:31:06.836Z,920.87
2022-11-17T12:32:02.480Z,920.86
2022-11-17T12:33:03.453Z,920.89
2022-11-17T12:34:03.710Z,920.93
2022-11-17T12:35:03.819Z,920.89
2022-11-17T12:36:04.159Z,920.86
2022-11-17T12:37:05.125Z,920.86
2022-11-17T12:38:06.157Z,920.81
2022-11-17T12:39:06.648Z,920.81